sensor_id;sensor_type;location;lat;lon;timestamp;P1;durP1;ratioP1;P2;durP2;ratioP2
819;SDS011;392;48.838;2.322;2022-12-24T00:01:43;15.57;;;5.13;;
819;SDS011;392;48.838;2.322;2022-12-24T00:04:11;19.47;;;4.97;;
819;SDS011;392;48.838;2.322;2022-12-24T00:06:38;11.20;;;4.27;;
819;SDS011;392;48.838;2.322;2022-12-24T00:09:05;20.00;;;6.40;;
819;SDS011;392;48.838;2.322;2022-12-24T00:11:33;16.23;;;5.20;;
819;SDS011;392;48.838;2.322;2022-12-24T00:14:00;14.03;;;5.33;;
819;SDS011;392;48.838;2.322;2022-12-24T00:16:29;18.80;;;7.33;;
819;SDS011;392;48.838;2.322;2022-12-24T00:18:56;17.83;;;6.17;;
819;SDS011;392;48.838;2.322;2022-12-24T00:21:24;12.70;;;4.97;;
819;SDS011;392;48.838;2.322;2022-12-24T00:23:51;14.37;;;7.13;;
819;SDS011;392;48.838;2.322;2022-12-24T00:26:18;16.73;;;5.53;;
819;SDS011;392;48.838;2.322;2022-12-24T00:28:46;19.37;;;4.83;;
819;SDS011;392;48.838;2.322;2022-12-24T00:31:13;19.73;;;6.10;;
819;SDS011;392;48.838;2.322;2022-12-24T00:33:45;16.33;;;4.00;;
819;SDS011;392;48.838;2.322;2022-12-24T00:36:13;18.37;;;5.77;;
819;SDS011;392;48.838;2.322;2022-12-24T00:38:41;11.20;;;5.00;;
819;SDS011;392;48.838;2.322;2022-12-24T00:41:09;11.60;;;4.60;;
819;SDS011;392;48.838;2.322;2022-12-24T00:43:49;12.50;;;5.20;;
819;SDS011;392;48.838;2.322;2022-12-24T00:46:18;9.27;;;3.70;;
819;SDS011;392;48.838;2.322;2022-12-24T00:48:47;15.97;;;6.30;;
819;SDS011;392;48.838;2.322;2022-12-24T00:51:14;10.30;;;4.00;;
819;SDS011;392;48.838;2.322;2022-12-24T00:53:42;10.60;;;4.10;;
819;SDS011;392;48.838;2.322;2022-12-24T00:56:09;8.83;;;4.07;;
819;SDS011;392;48.838;2.322;2022-12-24T00:58:37;11.93;;;5.80;;
819;SDS011;392;48.838;2.322;2022-12-24T01:01:04;15.83;;;4.50;;
819;SDS011;392;48.838;2.322;2022-12-24T01:03:33;12.43;;;4.47;;
819;SDS011;392;48.838;2.322;2022-12-24T01:06:02;14.40;;;5.50;;
819;SDS011;392;48.838;2.322;2022-12-24T01:08:31;13.40;;;4.23;;
819;SDS011;392;48.838;2.322;2022-12-24T01:10:59;13.97;;;4.33;;
819;SDS011;392;48.838;2.322;2022-12-24T01:13:28;10.60;;;4.40;;
819;SDS011;392;48.838;2.322;2022-12-24T01:15:55;20.30;;;4.57;;
819;SDS011;392;48.838;2.322;2022-12-24T01:18:22;13.97;;;4.20;;
819;SDS011;392;48.838;2.322;2022-12-24T01:20:54;15.70;;;4.90;;
819;SDS011;392;48.838;2.322;2022-12-24T01:23:24;13.57;;;5.23;;
819;SDS011;392;48.838;2.322;2022-12-24T01:25:52;16.03;;;4.43;;
819;SDS011;392;48.838;2.322;2022-12-24T01:28:20;14.70;;;4.60;;
819;SDS011;392;48.838;2.322;2022-12-24T01:30:47;16.17;;;5.10;;
819;SDS011;392;48.838;2.322;2022-12-24T01:33:15;20.67;;;5.50;;
819;SDS011;392;48.838;2.322;2022-12-24T01:35:42;14.03;;;5.13;;
819;SDS011;392;48.838;2.322;2022-12-24T01:38:10;13.67;;;5.47;;
819;SDS011;392;48.838;2.322;2022-12-24T01:40:40;12.07;;;4.57;;
819;SDS011;392;48.838;2.322;2022-12-24T01:43:26;14.83;;;4.97;;
819;SDS011;392;48.838;2.322;2022-12-24T01:45:57;12.53;;;4.27;;
819;SDS011;392;48.838;2.322;2022-12-24T01:48:31;10.57;;;4.57;;
819;SDS011;392;48.838;2.322;2022-12-24T01:51:05;15.53;;;5.53;;
819;SDS011;392;48.838;2.322;2022-12-24T01:53:39;12.93;;;4.70;;
819;SDS011;392;48.838;2.322;2022-12-24T01:56:11;16.50;;;4.60;;
819;SDS011;392;48.838;2.322;2022-12-24T01:58:40;12.83;;;4.93;;
819;SDS011;392;48.838;2.322;2022-12-24T02:01:12;19.30;;;4.93;;
819;SDS011;392;48.838;2.322;2022-12-24T02:03:39;11.87;;;4.20;;
819;SDS011;392;48.838;2.322;2022-12-24T02:06:07;13.27;;;4.90;;
819;SDS011;392;48.838;2.322;2022-12-24T02:08:36;15.30;;;5.10;;
819;SDS011;392;48.838;2.322;2022-12-24T02:11:13;13.43;;;5.67;;
819;SDS011;392;48.838;2.322;2022-12-24T02:13:42;14.70;;;5.50;;
819;SDS011;392;48.838;2.322;2022-12-24T02:16:18;11.87;;;5.47;;
819;SDS011;392;48.838;2.322;2022-12-24T02:18:59;15.60;;;4.60;;
819;SDS011;392;48.838;2.322;2022-12-24T02:21:41;14.10;;;4.43;;
819;SDS011;392;48.838;2.322;2022-12-24T02:24:20;16.67;;;4.60;;
819;SDS011;392;48.838;2.322;2022-12-24T02:27:30;13.77;;;4.70;;
819;SDS011;392;48.838;2.322;2022-12-24T02:30:14;18.00;;;4.70;;
819;SDS011;392;48.838;2.322;2022-12-24T02:32:47;14.23;;;4.83;;
819;SDS011;392;48.838;2.322;2022-12-24T02:35:35;18.73;;;5.37;;
819;SDS011;392;48.838;2.322;2022-12-24T02:38:12;12.60;;;4.80;;
819;SDS011;392;48.838;2.322;2022-12-24T02:40:45;13.90;;;4.40;;
819;SDS011;392;48.838;2.322;2022-12-24T02:43:19;11.80;;;5.20;;
819;SDS011;392;48.838;2.322;2022-12-24T02:45:53;17.27;;;5.20;;
819;SDS011;392;48.838;2.322;2022-12-24T02:48:23;13.23;;;5.20;;
819;SDS011;392;48.838;2.322;2022-12-24T02:50:55;17.40;;;4.80;;
819;SDS011;392;48.838;2.322;2022-12-24T02:53:27;17.43;;;4.87;;
819;SDS011;392;48.838;2.322;2022-12-24T02:55:59;11.03;;;3.90;;
819;SDS011;392;48.838;2.322;2022-12-24T02:58:58;17.03;;;5.50;;
819;SDS011;392;48.838;2.322;2022-12-24T03:01:49;17.10;;;5.03;;
819;SDS011;392;48.838;2.322;2022-12-24T03:04:24;18.00;;;4.80;;
819;SDS011;392;48.838;2.322;2022-12-24T03:07:06;12.80;;;4.00;;
819;SDS011;392;48.838;2.322;2022-12-24T03:09:46;10.93;;;4.70;;
819;SDS011;392;48.838;2.322;2022-12-24T03:12:23;13.20;;;4.80;;
819;SDS011;392;48.838;2.322;2022-12-24T03:14:56;12.80;;;4.30;;
819;SDS011;392;48.838;2.322;2022-12-24T03:17:26;13.23;;;4.30;;
819;SDS011;392;48.838;2.322;2022-12-24T03:19:54;14.37;;;4.43;;
819;SDS011;392;48.838;2.322;2022-12-24T03:22:21;12.53;;;5.00;;
819;SDS011;392;48.838;2.322;2022-12-24T03:24:50;12.90;;;5.10;;
819;SDS011;392;48.838;2.322;2022-12-24T03:27:18;16.67;;;4.13;;
819;SDS011;392;48.838;2.322;2022-12-24T03:29:45;16.50;;;5.10;;
819;SDS011;392;48.838;2.322;2022-12-24T03:32:13;11.70;;;4.20;;
819;SDS011;392;48.838;2.322;2022-12-24T03:34:41;20.60;;;4.90;;
819;SDS011;392;48.838;2.322;2022-12-24T03:37:09;17.80;;;5.20;;
819;SDS011;392;48.838;2.322;2022-12-24T03:39:36;14.23;;;4.83;;
819;SDS011;392;48.838;2.322;2022-12-24T03:42:03;12.47;;;4.90;;
819;SDS011;392;48.838;2.322;2022-12-24T03:44:31;15.80;;;4.30;;
819;SDS011;392;48.838;2.322;2022-12-24T03:46:58;15.47;;;4.80;;
819;SDS011;392;48.838;2.322;2022-12-24T03:49:26;17.73;;;5.20;;
819;SDS011;392;48.838;2.322;2022-12-24T03:51:54;17.00;;;5.60;;
819;SDS011;392;48.838;2.322;2022-12-24T03:54:22;12.03;;;4.43;;
819;SDS011;392;48.838;2.322;2022-12-24T03:56:49;18.20;;;4.40;;
819;SDS011;392;48.838;2.322;2022-12-24T03:59:17;16.60;;;5.23;;
819;SDS011;392;48.838;2.322;2022-12-24T04:01:44;12.50;;;4.43;;
819;SDS011;392;48.838;2.322;2022-12-24T04:04:11;20.00;;;5.83;;
819;SDS011;392;48.838;2.322;2022-12-24T04:06:39;12.90;;;4.60;;
819;SDS011;392;48.838;2.322;2022-12-24T04:09:08;16.00;;;5.03;;
819;SDS011;392;48.838;2.322;2022-12-24T04:11:35;13.33;;;4.33;;
819;SDS011;392;48.838;2.322;2022-12-24T04:14:03;13.77;;;4.43;;
819;SDS011;392;48.838;2.322;2022-12-24T04:16:30;17.93;;;4.67;;
819;SDS011;392;48.838;2.322;2022-12-24T04:18:57;10.80;;;4.50;;
819;SDS011;392;48.838;2.322;2022-12-24T04:21:25;17.53;;;4.83;;
819;SDS011;392;48.838;2.322;2022-12-24T04:23:52;17.07;;;4.40;;
819;SDS011;392;48.838;2.322;2022-12-24T04:26:21;17.27;;;5.57;;
819;SDS011;392;48.838;2.322;2022-12-24T04:28:48;18.47;;;3.77;;
819;SDS011;392;48.838;2.322;2022-12-24T04:31:16;14.17;;;4.60;;
819;SDS011;392;48.838;2.322;2022-12-24T04:33:43;12.00;;;4.30;;
819;SDS011;392;48.838;2.322;2022-12-24T04:36:12;16.80;;;4.70;;
819;SDS011;392;48.838;2.322;2022-12-24T04:38:42;11.83;;;4.23;;
819;SDS011;392;48.838;2.322;2022-12-24T04:41:11;10.63;;;4.10;;
819;SDS011;392;48.838;2.322;2022-12-24T04:43:42;15.10;;;4.87;;
819;SDS011;392;48.838;2.322;2022-12-24T04:46:10;14.43;;;4.33;;
819;SDS011;392;48.838;2.322;2022-12-24T04:48:40;12.80;;;3.70;;
819;SDS011;392;48.838;2.322;2022-12-24T04:51:08;18.80;;;5.63;;
819;SDS011;392;48.838;2.322;2022-12-24T04:53:37;13.17;;;4.10;;
819;SDS011;392;48.838;2.322;2022-12-24T04:56:06;15.97;;;4.60;;
819;SDS011;392;48.838;2.322;2022-12-24T04:58:34;17.63;;;5.00;;
819;SDS011;392;48.838;2.322;2022-12-24T05:01:03;11.70;;;4.87;;
819;SDS011;392;48.838;2.322;2022-12-24T05:03:31;20.20;;;4.50;;
819;SDS011;392;48.838;2.322;2022-12-24T05:06:02;11.97;;;4.60;;
819;SDS011;392;48.838;2.322;2022-12-24T05:08:31;15.10;;;5.80;;
819;SDS011;392;48.838;2.322;2022-12-24T05:10:59;11.13;;;5.47;;
819;SDS011;392;48.838;2.322;2022-12-24T05:13:28;14.43;;;4.53;;
819;SDS011;392;48.838;2.322;2022-12-24T05:15:55;11.97;;;4.47;;
819;SDS011;392;48.838;2.322;2022-12-24T05:18:24;17.47;;;4.43;;
819;SDS011;392;48.838;2.322;2022-12-24T05:20:52;18.33;;;4.73;;
819;SDS011;392;48.838;2.322;2022-12-24T05:23:20;15.33;;;4.53;;
819;SDS011;392;48.838;2.322;2022-12-24T05:26:09;18.50;;;5.80;;
819;SDS011;392;48.838;2.322;2022-12-24T05:28:48;12.13;;;4.37;;
819;SDS011;392;48.838;2.322;2022-12-24T05:31:16;16.33;;;5.73;;
819;SDS011;392;48.838;2.322;2022-12-24T05:33:45;16.97;;;5.60;;
819;SDS011;392;48.838;2.322;2022-12-24T05:36:13;16.30;;;5.20;;
819;SDS011;392;48.838;2.322;2022-12-24T05:38:42;13.20;;;5.30;;
819;SDS011;392;48.838;2.322;2022-12-24T05:41:10;12.33;;;4.10;;
819;SDS011;392;48.838;2.322;2022-12-24T05:43:37;19.03;;;5.00;;
819;SDS011;392;48.838;2.322;2022-12-24T05:46:05;15.93;;;5.07;;
819;SDS011;392;48.838;2.322;2022-12-24T05:48:35;17.90;;;5.77;;
819;SDS011;392;48.838;2.322;2022-12-24T05:51:04;13.67;;;4.90;;
819;SDS011;392;48.838;2.322;2022-12-24T05:53:33;15.90;;;5.60;;
819;SDS011;392;48.838;2.322;2022-12-24T05:56:02;15.97;;;5.10;;
819;SDS011;392;48.838;2.322;2022-12-24T05:58:31;17.77;;;6.13;;
819;SDS011;392;48.838;2.322;2022-12-24T06:00:59;19.37;;;5.27;;
819;SDS011;392;48.838;2.322;2022-12-24T06:03:28;19.50;;;6.40;;
819;SDS011;392;48.838;2.322;2022-12-24T06:05:57;18.60;;;4.57;;
819;SDS011;392;48.838;2.322;2022-12-24T06:08:28;12.67;;;4.70;;
819;SDS011;392;48.838;2.322;2022-12-24T06:10:57;19.67;;;6.03;;
819;SDS011;392;48.838;2.322;2022-12-24T06:13:27;18.53;;;6.10;;
819;SDS011;392;48.838;2.322;2022-12-24T06:15:55;15.73;;;4.87;;
819;SDS011;392;48.838;2.322;2022-12-24T06:18:24;19.00;;;4.33;;
819;SDS011;392;48.838;2.322;2022-12-24T06:20:52;18.00;;;6.83;;
819;SDS011;392;48.838;2.322;2022-12-24T06:23:20;12.63;;;4.53;;
819;SDS011;392;48.838;2.322;2022-12-24T06:25:50;11.30;;;4.50;;
819;SDS011;392;48.838;2.322;2022-12-24T06:28:17;14.30;;;4.37;;
819;SDS011;392;48.838;2.322;2022-12-24T06:30:45;11.90;;;4.40;;
819;SDS011;392;48.838;2.322;2022-12-24T06:33:14;14.97;;;4.67;;
819;SDS011;392;48.838;2.322;2022-12-24T06:35:43;13.93;;;4.97;;
819;SDS011;392;48.838;2.322;2022-12-24T06:38:12;11.40;;;4.57;;
819;SDS011;392;48.838;2.322;2022-12-24T06:40:40;14.27;;;5.60;;
819;SDS011;392;48.838;2.322;2022-12-24T06:43:10;7.70;;;3.33;;
819;SDS011;392;48.838;2.322;2022-12-24T06:45:38;12.17;;;3.70;;
819;SDS011;392;48.838;2.322;2022-12-24T06:48:10;12.40;;;5.00;;
819;SDS011;392;48.838;2.322;2022-12-24T06:50:37;11.37;;;3.90;;
819;SDS011;392;48.838;2.322;2022-12-24T06:53:05;10.50;;;2.90;;
819;SDS011;392;48.838;2.322;2022-12-24T06:55:32;10.10;;;3.23;;
819;SDS011;392;48.838;2.322;2022-12-24T06:58:00;12.57;;;3.53;;
819;SDS011;392;48.838;2.322;2022-12-24T07:00:28;9.67;;;3.80;;
819;SDS011;392;48.838;2.322;2022-12-24T07:02:56;10.17;;;3.53;;
819;SDS011;392;48.838;2.322;2022-12-24T07:05:23;12.80;;;3.10;;
819;SDS011;392;48.838;2.322;2022-12-24T07:07:51;9.20;;;2.73;;
819;SDS011;392;48.838;2.322;2022-12-24T07:10:19;7.13;;;3.23;;
819;SDS011;392;48.838;2.322;2022-12-24T07:12:47;8.47;;;2.90;;
819;SDS011;392;48.838;2.322;2022-12-24T07:15:15;7.93;;;2.33;;
819;SDS011;392;48.838;2.322;2022-12-24T07:17:44;8.40;;;3.37;;
819;SDS011;392;48.838;2.322;2022-12-24T07:20:12;8.73;;;3.63;;
819;SDS011;392;48.838;2.322;2022-12-24T07:22:40;6.70;;;2.53;;
819;SDS011;392;48.838;2.322;2022-12-24T07:25:08;9.13;;;3.20;;
819;SDS011;392;48.838;2.322;2022-12-24T07:27:36;10.50;;;3.03;;
819;SDS011;392;48.838;2.322;2022-12-24T07:30:04;9.47;;;2.87;;
819;SDS011;392;48.838;2.322;2022-12-24T07:32:33;5.53;;;3.23;;
819;SDS011;392;48.838;2.322;2022-12-24T07:35:02;5.27;;;2.27;;
819;SDS011;392;48.838;2.322;2022-12-24T07:37:30;9.13;;;3.00;;
819;SDS011;392;48.838;2.322;2022-12-24T07:39:57;7.30;;;2.47;;
819;SDS011;392;48.838;2.322;2022-12-24T07:42:25;10.13;;;3.00;;
819;SDS011;392;48.838;2.322;2022-12-24T07:44:53;9.43;;;3.80;;
819;SDS011;392;48.838;2.322;2022-12-24T07:47:20;8.27;;;2.20;;
819;SDS011;392;48.838;2.322;2022-12-24T07:49:48;3.70;;;2.00;;
819;SDS011;392;48.838;2.322;2022-12-24T07:52:16;8.67;;;2.13;;
819;SDS011;392;48.838;2.322;2022-12-24T07:54:44;5.33;;;2.40;;
819;SDS011;392;48.838;2.322;2022-12-24T07:57:11;13.47;;;3.07;;
819;SDS011;392;48.838;2.322;2022-12-24T07:59:39;7.83;;;2.30;;
819;SDS011;392;48.838;2.322;2022-12-24T08:02:07;10.80;;;2.80;;
819;SDS011;392;48.838;2.322;2022-12-24T08:04:36;4.37;;;2.57;;
819;SDS011;392;48.838;2.322;2022-12-24T08:07:03;8.83;;;2.50;;
819;SDS011;392;48.838;2.322;2022-12-24T08:09:32;8.10;;;2.33;;
819;SDS011;392;48.838;2.322;2022-12-24T08:12:01;11.90;;;3.63;;
819;SDS011;392;48.838;2.322;2022-12-24T08:14:30;5.23;;;2.67;;
819;SDS011;392;48.838;2.322;2022-12-24T08:16:57;9.87;;;3.10;;
819;SDS011;392;48.838;2.322;2022-12-24T08:19:25;8.17;;;2.60;;
819;SDS011;392;48.838;2.322;2022-12-24T08:21:52;7.67;;;2.50;;
819;SDS011;392;48.838;2.322;2022-12-24T08:24:19;6.80;;;3.70;;
819;SDS011;392;48.838;2.322;2022-12-24T08:26:48;8.80;;;2.70;;
819;SDS011;392;48.838;2.322;2022-12-24T08:29:16;9.17;;;3.40;;
819;SDS011;392;48.838;2.322;2022-12-24T08:31:43;8.30;;;2.57;;
819;SDS011;392;48.838;2.322;2022-12-24T08:34:10;8.63;;;2.57;;
819;SDS011;392;48.838;2.322;2022-12-24T08:36:38;7.90;;;2.67;;
819;SDS011;392;48.838;2.322;2022-12-24T08:39:05;6.13;;;3.00;;
819;SDS011;392;48.838;2.322;2022-12-24T08:41:33;4.87;;;3.23;;
819;SDS011;392;48.838;2.322;2022-12-24T08:44:02;3.90;;;2.20;;
819;SDS011;392;48.838;2.322;2022-12-24T08:46:29;7.07;;;2.20;;
819;SDS011;392;48.838;2.322;2022-12-24T08:48:57;7.33;;;2.43;;
819;SDS011;392;48.838;2.322;2022-12-24T08:51:24;4.70;;;2.20;;
819;SDS011;392;48.838;2.322;2022-12-24T08:53:51;5.00;;;2.17;;
819;SDS011;392;48.838;2.322;2022-12-24T08:56:19;8.80;;;2.77;;
819;SDS011;392;48.838;2.322;2022-12-24T08:58:47;7.80;;;2.30;;
819;SDS011;392;48.838;2.322;2022-12-24T09:01:16;10.07;;;2.93;;
819;SDS011;392;48.838;2.322;2022-12-24T09:03:44;8.47;;;2.00;;
819;SDS011;392;48.838;2.322;2022-12-24T09:06:12;7.60;;;2.23;;
819;SDS011;392;48.838;2.322;2022-12-24T09:08:41;4.20;;;2.37;;
819;SDS011;392;48.838;2.322;2022-12-24T09:11:09;6.80;;;1.93;;
819;SDS011;392;48.838;2.322;2022-12-24T09:13:39;5.90;;;1.93;;
819;SDS011;392;48.838;2.322;2022-12-24T09:16:07;4.30;;;2.40;;
819;SDS011;392;48.838;2.322;2022-12-24T09:18:36;5.30;;;2.60;;
819;SDS011;392;48.838;2.322;2022-12-24T09:21:04;5.10;;;2.57;;
819;SDS011;392;48.838;2.322;2022-12-24T09:23:36;8.07;;;2.40;;
819;SDS011;392;48.838;2.322;2022-12-24T09:26:05;5.97;;;2.30;;
819;SDS011;392;48.838;2.322;2022-12-24T09:28:33;6.03;;;2.40;;
819;SDS011;392;48.838;2.322;2022-12-24T09:31:02;5.13;;;1.97;;
819;SDS011;392;48.838;2.322;2022-12-24T09:33:31;7.07;;;2.27;;
819;SDS011;392;48.838;2.322;2022-12-24T09:36:02;7.93;;;2.53;;
819;SDS011;392;48.838;2.322;2022-12-24T09:38:31;5.37;;;2.20;;
819;SDS011;392;48.838;2.322;2022-12-24T09:40:59;9.30;;;3.17;;
819;SDS011;392;48.838;2.322;2022-12-24T09:43:30;3.20;;;2.00;;
819;SDS011;392;48.838;2.322;2022-12-24T09:46:03;6.83;;;2.20;;
819;SDS011;392;48.838;2.322;2022-12-24T09:48:48;7.30;;;2.60;;
819;SDS011;392;48.838;2.322;2022-12-24T09:51:23;9.17;;;3.47;;
819;SDS011;392;48.838;2.322;2022-12-24T09:53:59;7.43;;;3.23;;
819;SDS011;392;48.838;2.322;2022-12-24T09:56:30;7.57;;;2.40;;
819;SDS011;392;48.838;2.322;2022-12-24T09:59:04;5.00;;;2.03;;
819;SDS011;392;48.838;2.322;2022-12-24T10:01:36;9.10;;;2.90;;
819;SDS011;392;48.838;2.322;2022-12-24T10:04:06;5.93;;;2.60;;
819;SDS011;392;48.838;2.322;2022-12-24T10:06:42;6.43;;;2.10;;
819;SDS011;392;48.838;2.322;2022-12-24T10:09:18;6.00;;;2.53;;
819;SDS011;392;48.838;2.322;2022-12-24T10:11:59;7.20;;;2.50;;
819;SDS011;392;48.838;2.322;2022-12-24T10:14:36;5.80;;;2.00;;
819;SDS011;392;48.838;2.322;2022-12-24T10:17:21;6.80;;;3.40;;
819;SDS011;392;48.838;2.322;2022-12-24T10:20:21;3.90;;;2.20;;
819;SDS011;392;48.838;2.322;2022-12-24T10:23:03;4.00;;;1.80;;
819;SDS011;392;48.838;2.322;2022-12-24T10:25:40;4.53;;;2.40;;
819;SDS011;392;48.838;2.322;2022-12-24T10:28:16;5.90;;;2.40;;
819;SDS011;392;48.838;2.322;2022-12-24T10:30:48;8.23;;;2.37;;
819;SDS011;392;48.838;2.322;2022-12-24T10:33:26;8.00;;;2.20;;
819;SDS011;392;48.838;2.322;2022-12-24T10:35:57;5.87;;;2.40;;
819;SDS011;392;48.838;2.322;2022-12-24T10:38:28;5.70;;;2.60;;
819;SDS011;392;48.838;2.322;2022-12-24T10:40:57;6.10;;;3.20;;
819;SDS011;392;48.838;2.322;2022-12-24T10:43:27;5.03;;;2.30;;
819;SDS011;392;48.838;2.322;2022-12-24T10:45:56;5.43;;;2.30;;
819;SDS011;392;48.838;2.322;2022-12-24T10:48:27;6.50;;;2.27;;
819;SDS011;392;48.838;2.322;2022-12-24T10:50:59;5.03;;;2.13;;
819;SDS011;392;48.838;2.322;2022-12-24T10:53:35;6.47;;;2.93;;
819;SDS011;392;48.838;2.322;2022-12-24T10:56:09;5.67;;;2.23;;
819;SDS011;392;48.838;2.322;2022-12-24T10:58:42;6.00;;;2.60;;
819;SDS011;392;48.838;2.322;2022-12-24T11:01:10;4.43;;;2.40;;
819;SDS011;392;48.838;2.322;2022-12-24T11:03:38;15.93;;;6.33;;
819;SDS011;392;48.838;2.322;2022-12-24T11:06:08;13.23;;;4.63;;
819;SDS011;392;48.838;2.322;2022-12-24T11:08:40;7.63;;;3.03;;
819;SDS011;392;48.838;2.322;2022-12-24T11:11:10;6.13;;;2.40;;
819;SDS011;392;48.838;2.322;2022-12-24T11:13:42;2.93;;;2.30;;
819;SDS011;392;48.838;2.322;2022-12-24T11:16:14;6.53;;;3.43;;
819;SDS011;392;48.838;2.322;2022-12-24T11:18:47;5.10;;;2.53;;
819;SDS011;392;48.838;2.322;2022-12-24T11:21:20;8.13;;;2.20;;
819;SDS011;392;48.838;2.322;2022-12-24T11:23:52;4.60;;;2.43;;
819;SDS011;392;48.838;2.322;2022-12-24T11:26:23;6.60;;;2.90;;
819;SDS011;392;48.838;2.322;2022-12-24T11:29:11;3.93;;;2.17;;
819;SDS011;392;48.838;2.322;2022-12-24T11:31:42;7.13;;;3.43;;
819;SDS011;392;48.838;2.322;2022-12-24T11:34:17;7.47;;;3.17;;
819;SDS011;392;48.838;2.322;2022-12-24T11:36:51;6.17;;;3.43;;
819;SDS011;392;48.838;2.322;2022-12-24T11:39:22;3.80;;;2.40;;
819;SDS011;392;48.838;2.322;2022-12-24T11:41:52;4.53;;;2.20;;
819;SDS011;392;48.838;2.322;2022-12-24T11:44:22;5.43;;;2.37;;
819;SDS011;392;48.838;2.322;2022-12-24T11:46:52;5.37;;;2.40;;
819;SDS011;392;48.838;2.322;2022-12-24T11:49:22;6.73;;;2.57;;
819;SDS011;392;48.838;2.322;2022-12-24T11:54:57;5.57;;;2.97;;
819;SDS011;392;48.838;2.322;2022-12-24T11:57:38;2.80;;;2.40;;
819;SDS011;392;48.838;2.322;2022-12-24T12:00:13;3.80;;;2.70;;
819;SDS011;392;48.838;2.322;2022-12-24T12:02:42;4.37;;;2.40;;
819;SDS011;392;48.838;2.322;2022-12-24T12:05:15;6.07;;;2.47;;
819;SDS011;392;48.838;2.322;2022-12-24T12:07:46;8.40;;;2.43;;
819;SDS011;392;48.838;2.322;2022-12-24T12:10:19;4.80;;;2.50;;
819;SDS011;392;48.838;2.322;2022-12-24T12:12:52;5.70;;;3.80;;
819;SDS011;392;48.838;2.322;2022-12-24T12:15:27;4.67;;;2.37;;
819;SDS011;392;48.838;2.322;2022-12-24T12:18:01;5.17;;;2.60;;
819;SDS011;392;48.838;2.322;2022-12-24T12:20:37;5.77;;;2.70;;
819;SDS011;392;48.838;2.322;2022-12-24T12:23:10;6.17;;;3.90;;
819;SDS011;392;48.838;2.322;2022-12-24T12:25:45;2.67;;;2.47;;
819;SDS011;392;48.838;2.322;2022-12-24T12:28:19;4.10;;;2.43;;
819;SDS011;392;48.838;2.322;2022-12-24T12:30:53;3.70;;;2.23;;
819;SDS011;392;48.838;2.322;2022-12-24T12:33:30;4.17;;;2.37;;
819;SDS011;392;48.838;2.322;2022-12-24T12:36:05;3.93;;;2.70;;
819;SDS011;392;48.838;2.322;2022-12-24T12:38:36;7.73;;;2.70;;
819;SDS011;392;48.838;2.322;2022-12-24T12:41:13;6.67;;;2.60;;
819;SDS011;392;48.838;2.322;2022-12-24T12:43:58;3.93;;;2.27;;
819;SDS011;392;48.838;2.322;2022-12-24T12:46:50;6.67;;;2.63;;
819;SDS011;392;48.838;2.322;2022-12-24T12:49:35;7.00;;;2.43;;
819;SDS011;392;48.838;2.322;2022-12-24T12:52:11;6.83;;;2.80;;
819;SDS011;392;48.838;2.322;2022-12-24T12:54:50;9.00;;;2.90;;
819;SDS011;392;48.838;2.322;2022-12-24T12:57:32;4.13;;;2.60;;
819;SDS011;392;48.838;2.322;2022-12-24T13:00:04;7.20;;;2.40;;
819;SDS011;392;48.838;2.322;2022-12-24T13:02:41;6.40;;;3.10;;
819;SDS011;392;48.838;2.322;2022-12-24T13:05:46;3.87;;;2.20;;
819;SDS011;392;48.838;2.322;2022-12-24T13:08:55;5.60;;;2.90;;
819;SDS011;392;48.838;2.322;2022-12-24T13:11:53;4.03;;;3.03;;
819;SDS011;392;48.838;2.322;2022-12-24T13:17:37;7.90;;;2.93;;
819;SDS011;392;48.838;2.322;2022-12-24T13:20:20;4.43;;;2.73;;
819;SDS011;392;48.838;2.322;2022-12-24T13:22:53;6.93;;;2.90;;
819;SDS011;392;48.838;2.322;2022-12-24T13:25:26;4.77;;;2.70;;
819;SDS011;392;48.838;2.322;2022-12-24T13:33:59;6.33;;;3.03;;
819;SDS011;392;48.838;2.322;2022-12-24T13:36:59;4.93;;;2.57;;
819;SDS011;392;48.838;2.322;2022-12-24T13:42:45;5.40;;;2.90;;
819;SDS011;392;48.838;2.322;2022-12-24T13:45:40;6.13;;;2.70;;
819;SDS011;392;48.838;2.322;2022-12-24T13:48:17;4.27;;;2.60;;
819;SDS011;392;48.838;2.322;2022-12-24T13:50:57;5.37;;;2.90;;
819;SDS011;392;48.838;2.322;2022-12-24T13:53:28;6.40;;;2.73;;
819;SDS011;392;48.838;2.322;2022-12-24T13:56:00;7.37;;;3.30;;
819;SDS011;392;48.838;2.322;2022-12-24T13:58:33;7.23;;;3.10;;
819;SDS011;392;48.838;2.322;2022-12-24T14:01:05;5.87;;;3.03;;
819;SDS011;392;48.838;2.322;2022-12-24T14:03:40;5.63;;;2.50;;
819;SDS011;392;48.838;2.322;2022-12-24T14:06:11;3.27;;;2.63;;
819;SDS011;392;48.838;2.322;2022-12-24T14:08:48;6.17;;;3.40;;
819;SDS011;392;48.838;2.322;2022-12-24T14:11:19;6.80;;;2.90;;
819;SDS011;392;48.838;2.322;2022-12-24T14:16:54;4.50;;;3.23;;
819;SDS011;392;48.838;2.322;2022-12-24T14:19:27;8.40;;;3.80;;
819;SDS011;392;48.838;2.322;2022-12-24T14:22:01;6.77;;;3.10;;
819;SDS011;392;48.838;2.322;2022-12-24T14:24:32;4.40;;;3.73;;
819;SDS011;392;48.838;2.322;2022-12-24T14:27:05;3.90;;;2.57;;
819;SDS011;392;48.838;2.322;2022-12-24T14:29:44;4.63;;;3.27;;
819;SDS011;392;48.838;2.322;2022-12-24T14:32:16;5.63;;;3.10;;
819;SDS011;392;48.838;2.322;2022-12-24T14:34:45;4.07;;;2.87;;
819;SDS011;392;48.838;2.322;2022-12-24T14:37:12;4.93;;;2.90;;
819;SDS011;392;48.838;2.322;2022-12-24T14:39:41;5.53;;;2.83;;
819;SDS011;392;48.838;2.322;2022-12-24T14:42:24;5.27;;;3.47;;
819;SDS011;392;48.838;2.322;2022-12-24T14:45:02;3.27;;;2.37;;
819;SDS011;392;48.838;2.322;2022-12-24T14:47:44;5.07;;;3.27;;
819;SDS011;392;48.838;2.322;2022-12-24T14:50:27;6.47;;;3.20;;
819;SDS011;392;48.838;2.322;2022-12-24T14:53:06;6.27;;;3.40;;
819;SDS011;392;48.838;2.322;2022-12-24T14:55:49;4.27;;;3.10;;
819;SDS011;392;48.838;2.322;2022-12-24T14:58:18;5.70;;;3.43;;
819;SDS011;392;48.838;2.322;2022-12-24T15:00:50;9.77;;;3.63;;
819;SDS011;392;48.838;2.322;2022-12-24T15:03:21;3.63;;;3.10;;
819;SDS011;392;48.838;2.322;2022-12-24T15:05:53;5.20;;;3.63;;
819;SDS011;392;48.838;2.322;2022-12-24T15:08:27;7.30;;;3.20;;
819;SDS011;392;48.838;2.322;2022-12-24T15:11:01;6.43;;;5.37;;
819;SDS011;392;48.838;2.322;2022-12-24T15:13:32;6.17;;;3.50;;
819;SDS011;392;48.838;2.322;2022-12-24T15:16:02;6.57;;;3.37;;
819;SDS011;392;48.838;2.322;2022-12-24T15:18:34;6.30;;;3.23;;
819;SDS011;392;48.838;2.322;2022-12-24T15:21:13;7.57;;;3.57;;
819;SDS011;392;48.838;2.322;2022-12-24T15:23:45;7.57;;;4.20;;
819;SDS011;392;48.838;2.322;2022-12-24T15:26:15;6.80;;;3.80;;
819;SDS011;392;48.838;2.322;2022-12-24T15:28:49;5.33;;;4.00;;
819;SDS011;392;48.838;2.322;2022-12-24T15:31:17;7.47;;;6.13;;
819;SDS011;392;48.838;2.322;2022-12-24T15:33:47;4.93;;;3.90;;
819;SDS011;392;48.838;2.322;2022-12-24T15:36:23;7.60;;;5.57;;
819;SDS011;392;48.838;2.322;2022-12-24T15:38:54;4.77;;;3.77;;
819;SDS011;392;48.838;2.322;2022-12-24T15:41:26;5.43;;;3.43;;
819;SDS011;392;48.838;2.322;2022-12-24T15:43:58;11.20;;;9.10;;
819;SDS011;392;48.838;2.322;2022-12-24T15:46:28;10.83;;;9.80;;
819;SDS011;392;48.838;2.322;2022-12-24T15:48:58;6.63;;;4.30;;
819;SDS011;392;48.838;2.322;2022-12-24T15:51:29;7.30;;;6.60;;
819;SDS011;392;48.838;2.322;2022-12-24T15:54:00;8.13;;;4.60;;
819;SDS011;392;48.838;2.322;2022-12-24T15:56:34;5.37;;;4.00;;
819;SDS011;392;48.838;2.322;2022-12-24T15:59:18;5.00;;;4.40;;
819;SDS011;392;48.838;2.322;2022-12-24T16:01:55;10.87;;;6.97;;
819;SDS011;392;48.838;2.322;2022-12-24T16:05:17;8.20;;;5.00;;
819;SDS011;392;48.838;2.322;2022-12-24T16:08:05;5.43;;;4.90;;
819;SDS011;392;48.838;2.322;2022-12-24T16:10:49;10.83;;;7.20;;
819;SDS011;392;48.838;2.322;2022-12-24T16:13:21;14.53;;;13.13;;
819;SDS011;392;48.838;2.322;2022-12-24T16:15:54;9.73;;;5.43;;
819;SDS011;392;48.838;2.322;2022-12-24T16:18:24;7.40;;;4.23;;
819;SDS011;392;48.838;2.322;2022-12-24T16:20:58;8.80;;;5.03;;
819;SDS011;392;48.838;2.322;2022-12-24T16:23:31;11.10;;;10.00;;
819;SDS011;392;48.838;2.322;2022-12-24T16:26:05;9.40;;;6.07;;